createdAt,value
2022-12-15T00:00:20.537Z,3.00
2022-12-15T00:01:10.966Z,3.00
2022-12-15T00:02:01.368Z,3.00
2022-12-15T00:02:51.861Z,2.90
2022-12-15T00:03:42.018Z,2.90
2022-12-15T00:04:32.495Z,2.90
2022-12-15T00:05:23.345Z,2.90
2022-12-15T00:06:13.975Z,2.90
2022-12-15T00:07:04.404Z,2.90
2022-12-15T00:07:55.067Z,2.90
2022-12-15T00:08:45.363Z,2.90
2022-12-15T00:09:35.916Z,3.00
2022-12-15T00:10:26.831Z,2.80
2022-12-15T00:11:19.792Z,2.80
2022-12-15T00:12:10.297Z,2.90
2022-12-15T00:13:02.121Z,2.90
2022-12-15T00:13:55.573Z,2.90
2022-12-15T00:14:45.917Z,2.90
2022-12-15T00:15:36.319Z,2.90
2022-12-15T00:16:26.690Z,3.00
2022-12-15T00:17:17.035Z,3.00
2022-12-15T00:18:07.352Z,3.00
2022-12-15T00:18:57.703Z,3.00
2022-12-15T00:19:48.191Z,3.00
2022-12-15T00:20:38.741Z,3.00
2022-12-15T00:21:29.138Z,2.90
2022-12-15T00:22:19.676Z,3.00
2022-12-15T00:23:10.163Z,3.00
2022-12-15T00:24:00.635Z,3.00
2022-12-15T00:24:50.835Z,3.00
2022-12-15T00:25:41.226Z,3.00
2022-12-15T00:26:31.614Z,3.00
2022-12-15T00:27:22.469Z,3.00
2022-12-15T00:28:15.147Z,3.00
2022-12-15T00:29:05.520Z,3.00
2022-12-15T00:29:56.073Z,2.90
2022-12-15T00:30:50.052Z,2.90
2022-12-15T00:31:40.726Z,2.90
2022-12-15T00:32:31.320Z,2.90
2022-12-15T00:33:27.103Z,2.80
2022-12-15T00:34:17.719Z,2.80
2022-12-15T00:35:08.039Z,2.80
2022-12-15T00:35:58.705Z,2.80
2022-12-15T00:36:49.996Z,2.80
2022-12-15T00:37:40.287Z,2.80
2022-12-15T00:38:33.945Z,2.70
2022-12-15T00:39:06.736Z,2.50
2022-12-15T00:39:40.093Z,2.50
2022-12-15T00:40:12.838Z,2.50
2022-12-15T00:40:44.924Z,2.50
2022-12-15T00:41:19.319Z,2.60
2022-12-15T00:41:51.154Z,2.60
2022-12-15T00:42:22.945Z,2.60
2022-12-15T00:42:56.085Z,2.70
2022-12-15T00:43:29.959Z,2.70
2022-12-15T00:44:02.354Z,2.70
2022-12-15T00:44:35.579Z,2.80
2022-12-15T00:45:08.448Z,2.80
2022-12-15T00:45:59.139Z,2.80
2022-12-15T00:46:49.561Z,2.80
2022-12-15T00:47:21.522Z,2.80
2022-12-15T00:47:53.311Z,2.80
2022-12-15T00:48:25.107Z,2.80
2022-12-15T00:48:57.888Z,2.80
2022-12-15T00:49:49.331Z,2.80
2022-12-15T00:50:41.688Z,2.90
2022-12-15T00:51:14.083Z,2.90
2022-12-15T00:52:04.533Z,2.90
2022-12-15T00:52:55.044Z,2.90
2022-12-15T00:53:45.543Z,2.90
2022-12-15T00:54:36.047Z,2.80
2022-12-15T00:55:27.523Z,2.80
2022-12-15T00:56:17.942Z,2.90
2022-12-15T00:57:08.487Z,2.80
2022-12-15T00:57:58.638Z,2.80
2022-12-15T00:58:50.356Z,2.80
2022-12-15T00:59:40.963Z,2.80
2022-12-15T01:00:32.401Z,2.80
2022-12-15T01:01:25.472Z,2.80
2022-12-15T01:02:16.528Z,2.90
2022-12-15T01:03:07.208Z,2.80
2022-12-15T01:03:57.438Z,2.80
2022-12-15T01:04:48.977Z,2.90
2022-12-15T01:05:39.591Z,2.90
2022-12-15T01:06:31.894Z,2.90
2022-12-15T01:07:22.351Z,2.90
2022-12-15T01:08:12.855Z,2.90
2022-12-15T01:09:03.408Z,2.90
2022-12-15T01:09:53.936Z,2.90
2022-12-15T01:10:44.397Z,2.90
2022-12-15T01:11:34.416Z,2.90
2022-12-15T01:12:24.977Z,2.90
2022-12-15T01:13:15.328Z,2.90
2022-12-15T01:14:07.137Z,2.90
2022-12-15T01:14:57.481Z,2.90
2022-12-15T01:15:47.931Z,2.90
2022-12-15T01:16:38.490Z,2.90
2022-12-15T01:17:29.754Z,3.00
2022-12-15T01:18:20.073Z,2.90
2022-12-15T01:19:10.639Z,2.90
2022-12-15T01:20:01.162Z,2.90
2022-12-15T01:20:34.488Z,2.90
2022-12-15T01:21:08.237Z,2.90
2022-12-15T01:21:40.083Z,2.90
2022-12-15T01:22:12.842Z,2.90
2022-12-15T01:22:45.599Z,2.90
2022-12-15T01:23:17.358Z,3.00
2022-12-15T01:23:50.112Z,3.00
2022-12-15T01:24:22.024Z,3.00
2022-12-15T01:24:53.847Z,3.00
2022-12-15T01:25:26.242Z,3.10
2022-12-15T01:25:59.131Z,3.10
2022-12-15T01:26:31.015Z,3.00
2022-12-15T01:27:02.836Z,3.00
2022-12-15T01:27:35.802Z,3.00
2022-12-15T01:28:08.143Z,3.00
2022-12-15T01:28:39.933Z,3.10
2022-12-15T01:29:14.023Z,3.10
2022-12-15T01:29:45.819Z,3.10
2022-12-15T01:30:19.886Z,3.10
2022-12-15T01:30:52.254Z,3.10
2022-12-15T01:31:25.054Z,3.10
2022-12-15T01:31:56.927Z,3.00
2022-12-15T01:32:28.829Z,3.00
2022-12-15T01:33:01.573Z,3.00
2022-12-15T01:33:33.841Z,3.00
2022-12-15T01:34:05.861Z,3.00
2022-12-15T01:34:38.631Z,3.00
2022-12-15T01:35:11.130Z,3.00
2022-12-15T01:35:43.135Z,3.00
2022-12-15T01:36:15.952Z,3.00
2022-12-15T01:36:47.747Z,3.00
2022-12-15T01:37:19.925Z,3.00
2022-12-15T01:37:52.713Z,3.00
2022-12-15T01:38:24.999Z,3.00
2022-12-15T01:38:56.794Z,3.00
2022-12-15T01:39:49.636Z,3.00
2022-12-15T01:40:40.172Z,3.00
2022-12-15T01:41:12.500Z,3.00
2022-12-15T01:41:44.341Z,3.00
2022-12-15T01:42:16.250Z,3.00
2022-12-15T01:42:49.220Z,3.00
2022-12-15T01:43:23.076Z,3.00
2022-12-15T01:43:54.876Z,3.00
2022-12-15T01:44:28.974Z,3.00
2022-12-15T01:45:33.669Z,3.00
2022-12-15T01:46:08.055Z,3.00
2022-12-15T01:46:39.969Z,3.00
2022-12-15T01:47:13.668Z,3.00
2022-12-15T01:47:45.517Z,3.00
2022-12-15T01:48:23.305Z,3.00
2022-12-15T01:48:59.940Z,3.00
2022-12-15T01:49:33.833Z,3.00
2022-12-15T01:50:08.857Z,3.00
2022-12-15T01:50:46.123Z,3.00
2022-12-15T01:51:27.802Z,3.00
2022-12-15T01:52:02.036Z,3.00
2022-12-15T01:52:34.104Z,3.00
2022-12-15T01:53:06.056Z,3.00
2022-12-15T01:53:44.086Z,3.00
2022-12-15T01:54:19.952Z,3.00
2022-12-15T01:54:56.185Z,3.00
2022-12-15T01:55:30.233Z,3.00
2022-12-15T01:56:05.263Z,2.90
2022-12-15T01:56:41.576Z,2.90
2022-12-15T01:57:18.880Z,2.90
2022-12-15T01:57:53.930Z,2.90
2022-12-15T01:58:27.501Z,2.90
2022-12-15T01:59:02.000Z,2.90
2022-12-15T01:59:39.883Z,2.90
2022-12-15T02:00:12.792Z,3.00
2022-12-15T02:00:44.750Z,3.00
2022-12-15T02:01:17.929Z,3.00
2022-12-15T02:01:50.479Z,3.00
2022-12-15T02:02:26.161Z,3.00
2022-12-15T02:03:01.600Z,3.00
2022-12-15T02:03:34.185Z,3.00
2022-12-15T02:04:07.701Z,3.00
2022-12-15T02:04:39.821Z,3.00
2022-12-15T02:05:11.923Z,3.00
2022-12-15T02:05:44.729Z,3.00
2022-12-15T02:06:19.006Z,3.00
2022-12-15T02:06:52.909Z,3.00
2022-12-15T02:07:25.866Z,3.00
2022-12-15T02:07:59.552Z,3.00
2022-12-15T02:08:31.731Z,3.00
2022-12-15T02:09:05.568Z,3.00
2022-12-15T02:09:37.496Z,3.00
2022-12-15T02:10:11.100Z,3.00
2022-12-15T02:11:01.402Z,3.00
2022-12-15T02:11:57.070Z,3.10
2022-12-15T02:12:38.504Z,3.00
2022-12-15T02:13:17.692Z,3.00
2022-12-15T02:13:58.638Z,3.00
2022-12-15T02:14:54.675Z,3.00
2022-12-15T02:15:33.620Z,3.00
2022-12-15T02:16:18.626Z,2.90
2022-12-15T02:17:15.268Z,2.90
2022-12-15T02:17:54.732Z,2.90
2022-12-15T02:18:33.054Z,2.90
2022-12-15T02:19:24.742Z,2.90
2022-12-15T02:20:30.274Z,2.90
2022-12-15T02:21:07.771Z,2.90
2022-12-15T02:21:45.939Z,2.90
2022-12-15T02:22:27.365Z,2.80
2022-12-15T02:23:21.318Z,2.90
2022-12-15T02:24:18.673Z,2.80
2022-12-15T02:25:23.545Z,2.80
2022-12-15T02:26:17.852Z,2.80
2022-12-15T02:27:34.181Z,2.80
2022-12-15T02:28:10.233Z,2.70
2022-12-15T02:28:56.437Z,2.60
2022-12-15T02:29:55.714Z,2.60
2022-12-15T02:30:38.124Z,2.40
2022-12-15T02:31:33.212Z,2.40
2022-12-15T02:32:09.716Z,2.40
2022-12-15T02:32:48.251Z,2.40
2022-12-15T02:33:24.212Z,2.30
2022-12-15T02:34:05.886Z,2.30
2022-12-15T02:34:43.180Z,2.30
2022-12-15T02:35:20.680Z,2.40
2022-12-15T02:35:58.767Z,2.40
2022-12-15T02:36:39.122Z,2.40
2022-12-15T02:37:17.373Z,2.40
2022-12-15T02:37:50.666Z,2.50
2022-12-15T02:38:30.630Z,2.50
2022-12-15T02:39:03.552Z,2.50
2022-12-15T02:39:35.355Z,2.50
2022-12-15T02:40:10.130Z,2.50
2022-12-15T02:40:42.949Z,2.60
2022-12-15T02:41:37.273Z,2.60
2022-12-15T02:42:10.662Z,2.50
2022-12-15T02:42:46.701Z,2.50
2022-12-15T02:43:18.476Z,2.60
2022-12-15T02:43:50.311Z,2.50
2022-12-15T02:44:27.201Z,2.60
2022-12-15T02:45:02.645Z,2.60
2022-12-15T02:45:46.316Z,2.60
2022-12-15T02:46:27.729Z,2.60
2022-12-15T02:47:16.941Z,2.60
2022-12-15T02:47:58.807Z,2.60
2022-12-15T02:48:43.036Z,2.60
2022-12-15T02:49:22.623Z,2.70
2022-12-15T02:50:15.392Z,2.70
2022-12-15T02:50:58.768Z,2.70
2022-12-15T02:51:47.057Z,2.70
2022-12-15T02:52:31.422Z,2.60
2022-12-15T02:53:16.471Z,2.60
2022-12-15T02:54:09.096Z,2.60
2022-12-15T02:54:58.873Z,2.60
2022-12-15T02:55:41.532Z,2.50
2022-12-15T02:56:18.973Z,2.50
2022-12-15T02:57:03.839Z,2.50
2022-12-15T02:57:53.046Z,2.50
2022-12-15T02:58:32.949Z,2.50
2022-12-15T02:59:11.023Z,2.50
2022-12-15T02:59:46.450Z,2.40
2022-12-15T03:00:20.899Z,2.40
2022-12-15T03:00:59.714Z,2.40
2022-12-15T03:01:37.576Z,2.40
2022-12-15T03:02:13.134Z,2.40
2022-12-15T03:02:50.249Z,2.40
2022-12-15T03:03:23.963Z,2.40
2022-12-15T03:03:58.071Z,2.40
2022-12-15T03:04:33.847Z,2.40
2022-12-15T03:05:07.030Z,2.40
2022-12-15T03:05:41.745Z,2.30
2022-12-15T03:06:14.655Z,2.30
2022-12-15T03:06:59.048Z,2.30
2022-12-15T03:07:34.223Z,2.30
2022-12-15T03:08:06.476Z,2.30
2022-12-15T03:08:38.770Z,2.40
2022-12-15T03:09:12.561Z,2.40
2022-12-15T03:09:44.949Z,2.40
2022-12-15T03:10:20.107Z,2.40
2022-12-15T03:10:55.755Z,2.30
2022-12-15T03:11:27.907Z,2.30
2022-12-15T03:12:00.409Z,2.30
2022-12-15T03:12:33.179Z,2.30
2022-12-15T03:13:05.673Z,2.30
2022-12-15T03:13:37.544Z,2.30
2022-12-15T03:14:10.382Z,2.30
2022-12-15T03:14:42.159Z,2.40
2022-12-15T03:15:14.240Z,2.40
2022-12-15T03:15:46.055Z,2.40
2022-12-15T03:16:20.380Z,2.40
2022-12-15T03:16:52.670Z,2.40
2022-12-15T03:17:24.549Z,2.50
2022-12-15T03:17:57.310Z,2.50
2022-12-15T03:18:29.108Z,2.50
2022-12-15T03:19:00.899Z,2.60
2022-12-15T03:19:32.705Z,2.60
2022-12-15T03:20:06.701Z,2.60
2022-12-15T03:20:38.501Z,2.70
2022-12-15T03:21:10.427Z,2.70
2022-12-15T03:21:43.176Z,2.70
2022-12-15T03:22:15.034Z,2.70
2022-12-15T03:22:46.823Z,2.70
2022-12-15T03:23:19.563Z,2.70
2022-12-15T03:23:51.349Z,2.80
2022-12-15T03:24:23.220Z,2.80
2022-12-15T03:24:55.027Z,2.80
2022-12-15T03:25:27.828Z,2.80
2022-12-15T03:25:59.601Z,2.80
2022-12-15T03:26:31.435Z,2.80
2022-12-15T03:27:04.704Z,2.70
2022-12-15T03:27:37.716Z,2.70
2022-12-15T03:28:09.514Z,2.70
2022-12-15T03:28:42.570Z,2.70
2022-12-15T03:29:14.357Z,2.70
2022-12-15T03:29:46.184Z,2.70
2022-12-15T03:30:19.281Z,2.70
2022-12-15T03:30:51.166Z,2.70
2022-12-15T03:31:26.336Z,2.60
2022-12-15T03:31:58.207Z,2.60
2022-12-15T03:32:31.660Z,2.60
2022-12-15T03:33:03.473Z,2.60
2022-12-15T03:33:35.510Z,2.50
2022-12-15T03:34:08.346Z,2.50
2022-12-15T03:34:40.180Z,2.60
2022-12-15T03:35:12.989Z,2.60
2022-12-15T03:35:46.237Z,2.60
2022-12-15T03:36:18.193Z,2.60
2022-12-15T03:36:50.338Z,2.50
2022-12-15T03:37:23.520Z,2.60
2022-12-15T03:37:55.837Z,2.60
2022-12-15T03:38:27.713Z,2.60
2022-12-15T03:39:00.504Z,2.60
2022-12-15T03:39:32.304Z,2.60
2022-12-15T03:40:04.746Z,2.60
2022-12-15T03:40:37.532Z,2.60
2022-12-15T03:41:09.371Z,2.60
2022-12-15T03:41:41.532Z,2.50
2022-12-15T03:42:14.336Z,2.50
2022-12-15T03:42:48.752Z,2.50
2022-12-15T03:43:20.543Z,2.50
2022-12-15T03:43:53.301Z,2.40
2022-12-15T03:44:25.113Z,2.50
2022-12-15T03:44:56.889Z,2.50
2022-12-15T03:45:29.960Z,2.40
2022-12-15T03:46:02.015Z,2.40
2022-12-15T03:46:35.330Z,2.40
2022-12-15T03:47:08.263Z,2.30
2022-12-15T03:47:41.126Z,2.30
2022-12-15T03:48:13.082Z,2.30
2022-12-15T03:48:45.866Z,2.30
2022-12-15T03:49:17.642Z,2.30
2022-12-15T03:49:49.438Z,2.30
2022-12-15T03:50:24.592Z,2.30
2022-12-15T03:50:56.385Z,2.20
2022-12-15T03:51:28.178Z,2.10
2022-12-15T03:52:01.228Z,2.10
2022-12-15T03:52:33.116Z,2.10
2022-12-15T03:53:05.693Z,2.00
2022-12-15T03:53:38.490Z,2.10
2022-12-15T03:54:11.520Z,2.00
2022-12-15T03:54:43.302Z,2.10
2022-12-15T03:55:16.075Z,2.10
2022-12-15T03:55:47.853Z,2.10
2022-12-15T03:56:19.851Z,2.00
2022-12-15T03:56:52.582Z,2.00
2022-12-15T03:57:24.490Z,1.90
2022-12-15T03:57:56.578Z,1.90
2022-12-15T03:58:29.537Z,2.00
2022-12-15T03:59:01.309Z,1.90
2022-12-15T03:59:33.153Z,1.90
2022-12-15T04:00:07.780Z,1.90
2022-12-15T04:00:39.621Z,1.80
2022-12-15T04:01:13.196Z,1.80
2022-12-15T04:01:49.048Z,1.80
2022-12-15T04:02:21.415Z,1.70
2022-12-15T04:02:53.957Z,1.70
2022-12-15T04:03:26.969Z,1.70
2022-12-15T04:04:01.188Z,1.70
2022-12-15T04:04:33.396Z,1.70
2022-12-15T04:05:05.881Z,1.70
2022-12-15T04:05:39.193Z,1.80
2022-12-15T04:06:10.972Z,1.80
2022-12-15T04:06:42.845Z,1.80
2022-12-15T04:07:15.650Z,1.80
2022-12-15T04:07:47.637Z,1.80
2022-12-15T04:08:26.475Z,1.80
2022-12-15T04:08:59.411Z,1.90
2022-12-15T04:09:31.191Z,1.90
2022-12-15T04:10:03.114Z,2.00
2022-12-15T04:10:35.629Z,1.90
2022-12-15T04:11:08.395Z,1.90
2022-12-15T04:11:40.191Z,1.90
2022-12-15T04:12:12.316Z,2.00
2022-12-15T04:12:45.136Z,2.00
2022-12-15T04:13:16.929Z,2.00
2022-12-15T04:13:48.716Z,2.10
2022-12-15T04:14:21.507Z,2.10
2022-12-15T04:14:53.921Z,2.10
2022-12-15T04:15:25.982Z,2.10
2022-12-15T04:15:58.757Z,2.20
2022-12-15T04:16:30.769Z,2.10
2022-12-15T04:17:04.047Z,2.10
2022-12-15T04:17:36.038Z,2.00
2022-12-15T04:18:11.710Z,2.00
2022-12-15T04:18:43.504Z,2.00
2022-12-15T04:19:34.301Z,2.00
2022-12-15T04:20:10.579Z,2.00
2022-12-15T04:20:42.428Z,2.00
2022-12-15T04:21:15.746Z,2.00
2022-12-15T04:21:47.528Z,2.00
2022-12-15T04:22:19.300Z,2.00
2022-12-15T04:22:52.509Z,2.00
2022-12-15T04:23:24.393Z,2.00
2022-12-15T04:24:14.751Z,2.00
2022-12-15T04:25:05.115Z,2.00
2022-12-15T04:25:55.965Z,2.00
2022-12-15T04:26:46.449Z,2.00
2022-12-15T04:27:37.001Z,2.00
2022-12-15T04:28:29.111Z,2.00
2022-12-15T04:29:19.519Z,2.00
2022-12-15T04:30:10.012Z,2.00
2022-12-15T04:31:11.555Z,2.10
2022-12-15T04:32:01.971Z,2.00
2022-12-15T04:32:53.692Z,2.10
2022-12-15T04:33:44.435Z,2.10
2022-12-15T04:34:38.383Z,2.10
2022-12-15T04:35:30.468Z,2.00
2022-12-15T04:36:21.206Z,2.00
2022-12-15T04:37:13.190Z,2.00
2022-12-15T04:38:03.711Z,2.00
2022-12-15T04:38:54.627Z,2.00
2022-12-15T04:39:45.151Z,2.00
2022-12-15T04:40:35.425Z,2.00
2022-12-15T04:41:25.670Z,2.00
2022-12-15T04:42:17.732Z,2.00
2022-12-15T04:43:08.243Z,2.00
2022-12-15T04:43:58.708Z,2.00
2022-12-15T04:44:50.124Z,2.00
2022-12-15T04:45:43.793Z,2.00
2022-12-15T04:46:34.310Z,2.00
2022-12-15T04:47:24.845Z,2.10
2022-12-15T04:48:17.508Z,2.00
2022-12-15T04:49:07.859Z,2.00
2022-12-15T04:49:58.258Z,2.00
2022-12-15T04:50:48.761Z,2.10
2022-12-15T04:51:40.379Z,2.10
2022-12-15T04:52:30.686Z,2.00
2022-12-15T04:53:27.558Z,2.10
2022-12-15T04:54:17.919Z,2.10
2022-12-15T04:55:08.345Z,2.10
2022-12-15T04:55:58.825Z,2.00
2022-12-15T04:56:50.282Z,2.00
2022-12-15T04:57:40.858Z,2.00
2022-12-15T04:58:31.334Z,2.10
2022-12-15T04:59:22.208Z,2.00
2022-12-15T05:00:12.613Z,2.00
2022-12-15T05:01:03.031Z,1.90
2022-12-15T05:01:53.629Z,1.90
2022-12-15T05:02:43.825Z,1.90
2022-12-15T05:03:36.137Z,1.90
2022-12-15T05:04:27.067Z,1.90
2022-12-15T05:05:17.660Z,1.90
2022-12-15T05:06:08.137Z,2.00
2022-12-15T05:06:58.472Z,2.00
2022-12-15T05:07:48.716Z,2.00
2022-12-15T05:08:39.274Z,1.90
2022-12-15T05:09:29.551Z,1.90
2022-12-15T05:10:19.826Z,1.90
2022-12-15T05:11:10.299Z,1.90
2022-12-15T05:12:00.579Z,1.90
2022-12-15T05:12:51.128Z,1.90
2022-12-15T05:13:41.397Z,1.90
2022-12-15T05:14:31.867Z,1.90
2022-12-15T05:15:22.914Z,1.80
2022-12-15T05:16:13.412Z,1.80
2022-12-15T05:17:03.782Z,1.80
2022-12-15T05:17:54.289Z,1.80
2022-12-15T05:18:46.147Z,1.80
2022-12-15T05:19:36.695Z,1.80
2022-12-15T05:20:27.994Z,1.70
2022-12-15T05:21:18.377Z,1.70
2022-12-15T05:22:08.790Z,1.70
2022-12-15T05:22:59.285Z,1.70
2022-12-15T05:23:49.636Z,1.80
2022-12-15T05:24:39.994Z,1.70
2022-12-15T05:25:30.600Z,1.80
2022-12-15T05:26:21.201Z,1.80
2022-12-15T05:27:11.711Z,1.80
2022-12-15T05:28:02.049Z,1.80
2022-12-15T05:28:52.569Z,1.80
2022-12-15T05:29:42.978Z,1.80
2022-12-15T05:30:33.466Z,1.80
2022-12-15T05:31:25.045Z,1.80
2022-12-15T05:31:58.453Z,1.80
2022-12-15T05:32:31.976Z,1.80
2022-12-15T05:33:04.190Z,1.80
2022-12-15T05:33:38.513Z,1.80
2022-12-15T05:34:10.342Z,1.80
2022-12-15T05:34:42.186Z,1.80
2022-12-15T05:35:15.095Z,1.90
2022-12-15T05:35:46.953Z,1.90
2022-12-15T05:36:18.757Z,1.90
2022-12-15T05:36:51.844Z,1.90
2022-12-15T05:37:23.609Z,2.00
2022-12-15T05:37:55.400Z,2.00
2022-12-15T05:38:28.153Z,2.00
2022-12-15T05:39:00.020Z,2.00
2022-12-15T05:39:32.891Z,2.00
2022-12-15T05:40:06.550Z,2.00
2022-12-15T05:40:38.350Z,2.00
2022-12-15T05:41:10.192Z,2.00
2022-12-15T05:41:42.338Z,2.00
2022-12-15T05:42:15.145Z,2.00
2022-12-15T05:42:50.092Z,2.00
2022-12-15T05:43:26.369Z,2.10
2022-12-15T05:43:59.498Z,2.00
2022-12-15T05:44:31.337Z,2.00
2022-12-15T05:45:05.034Z,2.00
2022-12-15T05:45:36.941Z,2.00
2022-12-15T05:46:08.766Z,2.00
2022-12-15T05:46:41.649Z,2.00
2022-12-15T05:47:13.440Z,2.00
2022-12-15T05:47:50.808Z,2.00
2022-12-15T05:48:22.617Z,2.00
2022-12-15T05:48:56.850Z,2.00
2022-12-15T05:49:28.637Z,2.00
2022-12-15T05:50:00.476Z,2.00
2022-12-15T05:50:33.425Z,2.10
2022-12-15T05:51:06.182Z,2.00
2022-12-15T05:51:40.316Z,2.10
2022-12-15T05:52:13.076Z,2.10
2022-12-15T05:52:49.151Z,2.10
2022-12-15T05:53:21.357Z,2.10
2022-12-15T05:53:54.104Z,2.10
2022-12-15T05:54:25.961Z,2.10
2022-12-15T05:54:57.740Z,2.00
2022-12-15T05:55:30.824Z,2.00
2022-12-15T05:56:03.385Z,2.00
2022-12-15T05:56:36.235Z,2.00
2022-12-15T05:57:09.084Z,2.00
2022-12-15T05:57:40.879Z,1.90
2022-12-15T05:58:12.725Z,1.90
2022-12-15T05:58:45.872Z,1.90
2022-12-15T05:59:19.222Z,1.90
2022-12-15T05:59:51.227Z,1.80
2022-12-15T06:00:24.116Z,1.90
2022-12-15T06:01:02.569Z,1.90
2022-12-15T06:01:35.341Z,1.90
2022-12-15T06:02:08.281Z,1.90
2022-12-15T06:02:40.130Z,1.80
2022-12-15T06:03:12.080Z,1.80
2022-12-15T06:03:45.107Z,1.90
2022-12-15T06:04:18.357Z,1.90
2022-12-15T06:04:50.249Z,1.90
2022-12-15T06:05:23.072Z,1.80
2022-12-15T06:05:56.788Z,1.80
2022-12-15T06:06:29.876Z,1.80
2022-12-15T06:07:01.664Z,1.80
2022-12-15T06:07:33.858Z,1.90
2022-12-15T06:08:06.811Z,1.90
2022-12-15T06:08:40.454Z,1.90
2022-12-15T06:09:12.479Z,1.90
2022-12-15T06:09:45.257Z,1.90
2022-12-15T06:10:17.295Z,1.90
2022-12-15T06:10:52.844Z,1.90
2022-12-15T06:11:25.667Z,1.90
2022-12-15T06:11:57.445Z,1.90
2022-12-15T06:12:30.281Z,1.90
2022-12-15T06:13:02.057Z,1.90
2022-12-15T06:13:34.994Z,2.00
2022-12-15T06:14:08.180Z,2.00
2022-12-15T06:14:39.983Z,2.00
2022-12-15T06:15:12.756Z,2.10
2022-12-15T06:15:53.586Z,2.10
2022-12-15T06:16:27.841Z,2.10
2022-12-15T06:17:00.799Z,2.10
2022-12-15T06:17:32.608Z,2.10
2022-12-15T06:18:04.686Z,2.10
2022-12-15T06:18:39.606Z,2.10
2022-12-15T06:19:11.455Z,2.10
2022-12-15T06:19:44.612Z,2.10
2022-12-15T06:20:17.572Z,2.20
2022-12-15T06:20:49.634Z,2.20
2022-12-15T06:21:25.156Z,2.20
2022-12-15T06:21:56.981Z,2.20
2022-12-15T06:22:29.165Z,2.20
2022-12-15T06:23:01.972Z,2.20
2022-12-15T06:23:34.953Z,2.20
2022-12-15T06:24:07.979Z,2.20
2022-12-15T06:24:40.751Z,2.20
2022-12-15T06:25:12.539Z,2.20
2022-12-15T06:25:44.385Z,2.20
2022-12-15T06:26:20.479Z,2.20
2022-12-15T06:26:52.306Z,2.20
2022-12-15T06:27:25.136Z,2.10
2022-12-15T06:28:01.584Z,2.10
2022-12-15T06:28:33.745Z,2.10
2022-12-15T06:29:11.293Z,2.10
2022-12-15T06:29:43.166Z,2.10
2022-12-15T06:30:16.107Z,2.00
2022-12-15T06:30:48.853Z,2.10
2022-12-15T06:31:22.800Z,2.10
2022-12-15T06:31:55.727Z,2.10
2022-12-15T06:32:27.849Z,2.10
2022-12-15T06:32:59.671Z,2.10
2022-12-15T06:33:32.853Z,2.10
2022-12-15T06:34:06.406Z,2.20
2022-12-15T06:34:38.182Z,2.20
2022-12-15T06:35:12.393Z,2.20
2022-12-15T06:35:44.275Z,2.20
2022-12-15T06:36:17.488Z,2.10
2022-12-15T06:36:50.332Z,2.10
2022-12-15T06:37:22.165Z,2.10
2022-12-15T06:37:53.948Z,2.10
2022-12-15T06:38:29.551Z,2.10
2022-12-15T06:39:04.164Z,2.10
2022-12-15T06:39:35.988Z,2.10
2022-12-15T06:40:10.185Z,2.10
2022-12-15T06:40:42.074Z,2.10
2022-12-15T06:41:15.577Z,2.10
2022-12-15T06:41:48.670Z,2.20
2022-12-15T06:42:21.749Z,2.10
2022-12-15T06:42:53.557Z,2.10
2022-12-15T06:43:26.485Z,2.20
2022-12-15T06:43:59.478Z,2.20
2022-12-15T06:44:31.322Z,2.20
2022-12-15T06:45:05.044Z,2.20
2022-12-15T06:45:36.872Z,2.20
2022-12-15T06:46:09.342Z,2.20
2022-12-15T06:46:42.890Z,2.10
2022-12-15T06:47:14.796Z,2.10
2022-12-15T06:47:48.765Z,2.00
2022-12-15T06:48:22.685Z,2.00
2022-12-15T06:48:54.821Z,2.10
2022-12-15T06:49:26.604Z,2.00
2022-12-15T06:49:59.369Z,2.10
2022-12-15T06:50:34.243Z,2.10
2022-12-15T06:51:13.335Z,2.00
2022-12-15T06:51:50.255Z,2.00
2022-12-15T06:52:22.291Z,2.00
2022-12-15T06:52:54.091Z,2.00
2022-12-15T06:53:26.911Z,2.00
2022-12-15T06:53:59.531Z,2.10
2022-12-15T06:54:31.354Z,2.00
2022-12-15T06:55:04.341Z,2.00
2022-12-15T06:55:36.309Z,2.00
2022-12-15T06:56:16.269Z,2.00
2022-12-15T06:56:49.895Z,1.90
2022-12-15T06:57:21.986Z,1.90
2022-12-15T06:57:53.854Z,1.90
2022-12-15T06:58:27.651Z,1.90
2022-12-15T06:58:59.968Z,1.90
2022-12-15T06:59:33.286Z,1.90
2022-12-15T07:00:09.309Z,1.90
2022-12-15T07:00:42.792Z,1.80
2022-12-15T07:01:16.197Z,1.80
2022-12-15T07:01:48.182Z,1.80
2022-12-15T07:02:26.873Z,1.70
2022-12-15T07:03:00.722Z,1.70
2022-12-15T07:03:33.121Z,1.70
2022-12-15T07:04:06.662Z,1.70
2022-12-15T07:04:38.555Z,1.70
2022-12-15T07:05:11.293Z,1.80
2022-12-15T07:05:45.241Z,1.80
2022-12-15T07:06:17.642Z,1.80
2022-12-15T07:06:50.401Z,1.80
2022-12-15T07:07:22.229Z,1.80
2022-12-15T07:07:54.035Z,1.80
2022-12-15T07:08:31.404Z,1.80
2022-12-15T07:09:07.414Z,1.80
2022-12-15T07:09:40.221Z,1.70
2022-12-15T07:10:12.090Z,1.70
2022-12-15T07:10:44.360Z,1.70
2022-12-15T07:11:17.122Z,1.70
2022-12-15T07:11:51.209Z,1.70
2022-12-15T07:12:24.036Z,1.70
2022-12-15T07:12:57.589Z,1.70
2022-12-15T07:13:29.856Z,1.70
2022-12-15T07:14:03.009Z,1.60
2022-12-15T07:14:34.852Z,1.60
2022-12-15T07:15:08.995Z,1.60
2022-12-15T07:15:41.458Z,1.70
2022-12-15T07:16:13.597Z,1.70
2022-12-15T07:16:46.695Z,1.70
2022-12-15T07:17:18.946Z,1.70
2022-12-15T07:17:51.150Z,1.70
2022-12-15T07:18:23.885Z,1.70
2022-12-15T07:18:55.735Z,1.70
2022-12-15T07:19:28.585Z,1.70
2022-12-15T07:20:00.407Z,1.70
2022-12-15T07:20:32.426Z,1.80
2022-12-15T07:21:08.267Z,1.80
2022-12-15T07:21:41.131Z,1.80
2022-12-15T07:22:13.952Z,1.80
2022-12-15T07:22:50.210Z,1.80
2022-12-15T07:23:46.022Z,1.80
2022-12-15T07:24:15.114Z,1.90
2022-12-15T07:24:47.900Z,1.90
2022-12-15T07:25:20.640Z,1.90
2022-12-15T07:25:52.436Z,1.90
2022-12-15T07:26:25.774Z,2.00
2022-12-15T07:26:57.617Z,2.00
2022-12-15T07:27:30.411Z,2.00
2022-12-15T07:28:02.246Z,2.00
2022-12-15T07:28:35.609Z,2.00
2022-12-15T07:29:07.428Z,2.00
2022-12-15T07:29:39.223Z,2.00
2022-12-15T07:30:13.432Z,2.00
2022-12-15T07:30:45.295Z,2.00
2022-12-15T07:31:17.656Z,2.00
2022-12-15T07:31:50.659Z,2.00
2022-12-15T07:32:22.501Z,2.10
2022-12-15T07:32:54.299Z,2.10
2022-12-15T07:33:27.159Z,2.10
2022-12-15T07:33:59.229Z,2.10
2022-12-15T07:34:31.993Z,2.10
2022-12-15T07:35:05.354Z,2.10
2022-12-15T07:35:37.312Z,2.10
2022-12-15T07:36:11.687Z,2.10
2022-12-15T07:36:47.133Z,2.10
2022-12-15T07:37:24.593Z,2.10
2022-12-15T07:37:56.468Z,2.10
2022-12-15T07:38:29.206Z,2.20
2022-12-15T07:39:02.898Z,2.20
2022-12-15T07:39:34.771Z,2.20
2022-12-15T07:40:08.172Z,2.20
2022-12-15T07:40:40.968Z,2.20
2022-12-15T07:41:12.763Z,2.20
2022-12-15T07:41:45.525Z,2.20
2022-12-15T07:42:17.347Z,2.20
2022-12-15T07:42:49.212Z,2.20
2022-12-15T07:43:22.421Z,2.20
2022-12-15T07:43:54.223Z,2.20
2022-12-15T07:44:27.047Z,2.10
2022-12-15T07:44:58.912Z,2.10
2022-12-15T07:45:30.822Z,2.10
2022-12-15T07:46:03.898Z,2.00
2022-12-15T07:46:36.010Z,2.00
2022-12-15T07:47:07.874Z,2.00
2022-12-15T07:47:40.692Z,2.00
2022-12-15T07:48:12.855Z,2.00
2022-12-15T07:48:50.927Z,2.00
2022-12-15T07:49:23.947Z,2.00
2022-12-15T07:49:55.792Z,2.00
2022-12-15T07:50:28.986Z,2.00
2022-12-15T07:51:10.941Z,1.90
2022-12-15T07:51:44.856Z,1.90
2022-12-15T07:52:17.924Z,1.90
2022-12-15T07:52:51.257Z,1.90
2022-12-15T07:53:24.611Z,1.90
2022-12-15T07:53:57.448Z,2.00
2022-12-15T07:54:29.244Z,2.00
2022-12-15T07:55:02.063Z,2.00
2022-12-15T07:56:05.177Z,1.90
2022-12-15T07:56:26.653Z,1.90
2022-12-15T07:56:59.960Z,2.00
2022-12-15T07:57:33.545Z,1.90
2022-12-15T07:58:05.325Z,1.90
2022-12-15T07:58:39.075Z,2.00
2022-12-15T07:59:10.910Z,1.90
2022-12-15T07:59:43.810Z,2.00
2022-12-15T08:00:17.295Z,2.00
2022-12-15T08:00:49.249Z,1.90
2022-12-15T08:01:22.229Z,1.90
2022-12-15T08:01:54.407Z,1.90
2022-12-15T08:02:26.531Z,1.90
2022-12-15T08:03:02.627Z,1.90
2022-12-15T08:03:35.719Z,1.90
2022-12-15T08:04:08.217Z,2.00
2022-12-15T08:04:41.636Z,2.00
2022-12-15T08:05:13.953Z,2.10
2022-12-15T08:05:46.022Z,2.00
2022-12-15T08:06:18.801Z,2.00
2022-12-15T08:06:53.615Z,2.00
2022-12-15T08:07:26.536Z,2.00
2022-12-15T08:07:58.603Z,2.00
2022-12-15T08:08:31.225Z,2.10
2022-12-15T08:09:04.446Z,2.10
2022-12-15T08:09:36.271Z,2.10
2022-12-15T08:10:09.022Z,2.10
2022-12-15T08:10:41.950Z,2.10
2022-12-15T08:11:15.201Z,2.20
2022-12-15T08:11:48.045Z,2.20
2022-12-15T08:12:19.864Z,2.20
2022-12-15T08:12:52.463Z,2.20
2022-12-15T08:14:00.689Z,2.20
2022-12-15T08:14:18.824Z,2.20
2022-12-15T08:14:51.849Z,2.20
2022-12-15T08:15:23.680Z,2.10
2022-12-15T08:15:56.906Z,2.10
2022-12-15T08:16:29.279Z,2.10
2022-12-15T08:17:02.364Z,2.10
2022-12-15T08:17:34.236Z,2.10
2022-12-15T08:18:07.401Z,2.20
2022-12-15T08:18:40.264Z,2.20
2022-12-15T08:19:13.644Z,2.20
2022-12-15T08:19:46.404Z,2.30
2022-12-15T08:20:18.225Z,2.20
2022-12-15T08:20:50.187Z,2.20
2022-12-15T08:21:23.523Z,2.20
2022-12-15T08:21:56.621Z,2.20
2022-12-15T08:22:28.442Z,2.20
2022-12-15T08:23:01.403Z,2.20